Time;durP1;ratioP1;P1;durP2;ratioP2;P2;SDS_P1;SDS_P2;PMS_P1;PMS_P2;Temp;Humidity;BMP_temperature;BMP_pressure;BME280_temperature;BME280_humidity;BME280_pressure;Samples;Min_cycle;Max_cycle;Signal;HPM_P1;HPM_P2
2024/01/01 00:04:47;;;;;;;246.10;124.30;;;;;;;3.91;100.00;99561.89;215201;1285;140101;-88
2024/01/01 00:09:48;;;;;;;239.30;125.20;;;;;;;3.90;100.00;99558.68;215397;1288;139954;-90
2024/01/01 00:14:48;;;;;;;252.90;126.80;;;;;;;3.88;100.00;99562.83;215402;1286;139886;-91
2024/01/01 00:19:48;;;;;;;244.90;129.20;;;;;;;3.86;100.00;99564.34;215635;1285;139330;-91
2024/01/01 00:30:12;;;;;;;242.50;125.30;;;;;;;3.82;100.00;99560.67;215536;1288;140477;-89
2024/01/01 00:35:13;;;;;;;255.70;129.70;;;;;;;3.82;100.00;99561.67;215432;1291;139170;-89
2024/01/01 00:40:14;;;;;;;266.40;138.20;;;;;;;3.80;100.00;99561.24;215375;1288;140227;-89
2024/01/01 00:45:15;;;;;;;267.30;138.40;;;;;;;3.75;100.00;99561.45;215915;1289;139166;-88
2024/01/01 00:50:15;;;;;;;286.50;144.30;;;;;;;3.71;100.00;99561.56;214866;1288;141092;-88
2024/01/01 00:55:16;;;;;;;261.60;139.90;;;;;;;3.66;100.00;99563.08;215339;1289;139236;-91
2024/01/01 01:00:16;;;;;;;272.20;140.00;;;;;;;3.62;100.00;99566.80;216358;1287;140308;-91
2024/01/01 01:05:19;;;;;;;259.00;131.10;;;;;;;3.58;100.00;99565.14;217339;1288;139298;-92
2024/01/01 01:10:20;;;;;;;262.90;128.30;;;;;;;3.54;100.00;99565.02;217902;1287;141326;-92
2024/01/01 01:15:24;;;;;;;250.30;125.30;;;;;;;3.51;100.00;99569.61;217342;1288;139248;-92
2024/01/01 01:20:25;;;;;;;279.20;132.40;;;;;;;3.46;100.00;99565.22;215102;1288;140720;-91
2024/01/01 01:25:25;;;;;;;264.90;123.20;;;;;;;3.37;100.00;99564.58;215402;1286;139281;-92
2024/01/01 01:30:26;;;;;;;216.30;108.60;;;;;;;3.33;100.00;99567.13;214382;1287;141000;-92
2024/01/01 01:35:26;;;;;;;212.20;106.20;;;;;;;3.30;100.00;99573.43;214317;1290;139335;-92
2024/01/01 01:40:26;;;;;;;198.10;94.20;;;;;;;3.27;100.00;99583.45;214155;1288;140546;-91
2024/01/01 01:45:27;;;;;;;181.40;89.20;;;;;;;3.25;100.00;99589.61;214419;1288;98038;-90
2024/01/01 01:50:27;;;;;;;173.70;87.00;;;;;;;3.23;100.00;99580.71;214457;1288;139477;-93
2024/01/01 01:55:28;;;;;;;165.20;83.40;;;;;;;3.21;100.00;99570.16;214897;1291;139078;-92
2024/01/01 02:00:30;;;;;;;199.00;96.00;;;;;;;3.18;100.00;99561.91;214544;1289;139857;-94
2024/01/01 02:05:31;;;;;;;147.70;73.80;;;;;;;3.11;100.00;99553.05;214715;1286;139076;-93
2024/01/01 02:10:31;;;;;;;137.70;68.60;;;;;;;3.11;100.00;99566.02;214375;1290;140465;-92
2024/01/01 02:15:32;;;;;;;141.20;69.10;;;;;;;3.11;100.00;99569.76;215343;1289;98723;-93
2024/01/01 02:20:32;;;;;;;136.50;63.80;;;;;;;3.11;100.00;99570.45;214907;1291;140064;-93
2024/01/01 02:25:32;;;;;;;114.30;57.90;;;;;;;3.11;100.00;99568.27;215564;1291;139695;-92
2024/01/01 02:30:33;;;;;;;121.50;58.50;;;;;;;3.11;100.00;99570.67;214752;1291;139845;-92
2024/01/01 02:35:34;;;;;;;117.10;56.30;;;;;;;3.12;100.00;99573.34;215081;1286;139400;-92
2024/01/01 02:40:35;;;;;;;112.80;54.20;;;;;;;3.14;100.00;99568.42;214942;1288;139951;-93
2024/01/01 02:45:35;;;;;;;104.70;49.90;;;;;;;3.15;100.00;99570.02;215702;1289;106653;-93
2024/01/01 02:50:36;;;;;;;100.80;49.70;;;;;;;3.18;100.00;99562.39;216437;1286;140393;-93
2024/01/01 02:55:36;;;;;;;98.50;46.60;;;;;;;3.20;100.00;99557.10;218450;1286;139876;-90
2024/01/01 03:00:37;;;;;;;87.50;42.80;;;;;;;3.26;100.00;99555.52;216562;1286;139612;-92
2024/01/01 03:05:37;;;;;;;91.80;43.10;;;;;;;3.29;100.00;99548.15;214593;1293;138869;-92
2024/01/01 03:10:38;;;;;;;83.40;42.30;;;;;;;3.34;100.00;99548.22;213597;1294;144513;-91
2024/01/01 03:15:38;;;;;;;80.10;40.50;;;;;;;3.38;100.00;99551.25;214228;1291;99308;-92
2024/01/01 03:20:39;;;;;;;79.90;39.20;;;;;;;3.41;100.00;99559.66;214675;1289;139813;-92
2024/01/01 03:25:39;;;;;;;79.70;40.40;;;;;;;3.44;100.00;99563.92;215052;1289;138854;-93
2024/01/01 03:30:40;;;;;;;74.20;36.70;;;;;;;3.48;100.00;99560.69;215105;1286;140294;-92
2024/01/01 03:35:40;;;;;;;66.60;34.70;;;;;;;3.50;100.00;99544.05;218583;1286;138657;-92
2024/01/01 03:40:41;;;;;;;70.20;35.10;;;;;;;3.54;100.00;99540.86;218323;1285;139725;-92
2024/01/01 03:45:41;;;;;;;67.40;34.40;;;;;;;3.58;100.00;99546.09;218784;1286;96021;-92
2024/01/01 03:50:42;;;;;;;64.80;33.30;;;;;;;3.62;100.00;99553.73;215338;1291;139990;-92
2024/01/01 03:55:42;;;;;;;61.40;30.30;;;;;;;3.66;100.00;99549.23;214682;1287;138785;-91
2024/01/01 04:00:43;;;;;;;59.30;30.50;;;;;;;3.69;100.00;99539.13;215442;1286;139891;-91
2024/01/01 04:05:44;;;;;;;58.10;28.90;;;;;;;3.71;100.00;99527.13;215413;1289;138817;-92
2024/01/01 04:10:44;;;;;;;55.60;28.20;;;;;;;3.72;100.00;99524.35;214922;1286;140466;-93
2024/01/01 04:15:44;;;;;;;60.50;28.60;;;;;;;3.69;100.00;99524.22;215454;1291;98208;-93
2024/01/01 04:20:45;;;;;;;57.50;27.90;;;;;;;3.66;100.00;99514.09;215184;1288;139557;-91
2024/01/01 04:25:46;;;;;;;51.40;26.70;;;;;;;3.62;100.00;99504.77;215648;1286;138586;-91
2024/01/01 04:30:46;;;;;;;61.20;29.20;;;;;;;3.57;100.00;99491.20;215264;1286;140070;-92
2024/01/01 04:35:47;;;;;;;59.30;29.70;;;;;;;3.56;100.00;99496.46;217319;1287;139166;-90
2024/01/01 04:40:47;;;;;;;52.40;25.60;;;;;;;3.59;100.00;99503.77;217936;1286;139815;-92
2024/01/01 04:45:48;;;;;;;75.00;32.10;;;;;;;3.57;100.00;99493.70;216370;1289;97956;-91
2024/01/01 04:50:48;;;;;;;89.20;37.20;;;;;;;3.56;100.00;99491.39;214140;1288;139376;-91
2024/01/01 04:55:49;;;;;;;76.50;32.10;;;;;;;3.53;100.00;99500.88;214321;1291;138667;-92
2024/01/01 05:00:49;;;;;;;58.50;27.80;;;;;;;3.52;100.00;99507.79;214063;1288;139670;-91
2024/01/01 05:05:50;;;;;;;56.80;27.20;;;;;;;3.52;100.00;99499.23;214650;1291;138784;-90
2024/01/01 05:10:50;;;;;;;104.70;47.70;;;;;;;3.52;100.00;99499.85;214053;1288;139543;-91
2024/01/01 05:15:51;;;;;;;58.50;30.40;;;;;;;3.52;100.00;99515.79;214734;1289;97978;-91
2024/01/01 05:20:51;;;;;;;55.40;27.80;;;;;;;3.55;100.00;99529.61;214263;1294;139793;-91
2024/01/01 05:25:52;;;;;;;49.00;24.70;;;;;;;3.57;100.00;99530.59;215027;1288;138697;-91
2024/01/01 05:30:53;;;;;;;54.60;27.10;;;;;;;3.60;100.00;99524.30;214714;1286;139859;-91
2024/01/01 05:35:53;;;;;;;51.00;25.60;;;;;;;3.64;100.00;99515.53;215087;1286;138721;-90
2024/01/01 05:40:54;;;;;;;52.20;25.00;;;;;;;3.67;100.00;99507.75;215249;1290;139929;-93
2024/01/01 05:45:54;;;;;;;47.80;24.60;;;;;;;3.71;100.00;99505.82;216248;1287;97884;-92
2024/01/01 05:50:54;;;;;;;48.10;23.90;;;;;;;3.74;100.00;99506.36;215735;1286;139838;-91
2024/01/01 05:55:55;;;;;;;59.10;26.20;;;;;;;3.77;100.00;99502.39;215758;1288;138524;-92
2024/01/01 06:00:55;;;;;;;53.40;25.70;;;;;;;3.79;100.00;99500.34;214957;1288;140116;-92
2024/01/01 06:05:56;;;;;;;53.40;24.10;;;;;;;3.81;100.00;99492.14;215521;1287;138724;-92
2024/01/01 06:10:56;;;;;;;54.20;25.00;;;;;;;3.79;100.00;99479.97;214941;1288;140146;-92
2024/01/01 06:15:58;;;;;;;47.50;24.10;;;;;;;3.81;100.00;99485.85;215704;1286;97681;-92
2024/01/01 06:20:59;;;;;;;46.00;23.30;;;;;;;3.82;100.00;99484.86;217391;1286;139534;-91
2024/01/01 06:26:00;;;;;;;49.40;24.50;;;;;;;3.84;100.00;99488.48;218196;1287;138815;-92
2024/01/01 06:31:00;;;;;;;48.30;24.30;;;;;;;3.86;100.00;99486.27;214831;1290;140827;-91
2024/01/01 06:36:01;;;;;;;48.20;22.20;;;;;;;3.85;100.00;99492.40;214649;1290;139277;-92
2024/01/01 06:41:02;;;;;;;43.60;22.90;;;;;;;3.85;100.00;99499.40;213920;1289;140802;-91
2024/01/01 06:46:04;;;;;;;43.30;22.30;;;;;;;3.86;100.00;99505.33;214771;1286;98139;-92
2024/01/01 06:51:11;;;;;;;43.10;22.10;;;;;;;3.83;100.00;99506.41;213952;1290;139665;-91
2024/01/01 06:56:11;;;;;;;49.50;23.20;;;;;;;3.78;100.00;99512.52;214498;1286;139028;-92
2024/01/01 07:01:12;;;;;;;46.70;22.30;;;;;;;3.71;100.00;99508.15;214099;1290;139422;-92
2024/01/01 07:06:12;;;;;;;44.00;22.20;;;;;;;3.63;100.00;99512.55;214547;1288;139274;-92
2024/01/01 07:11:13;;;;;;;50.40;24.40;;;;;;;3.61;100.00;99519.96;213995;1288;140046;-92
2024/01/01 07:16:13;;;;;;;47.00;24.50;;;;;;;3.57;100.00;99517.61;214549;1288;99286;-92
2024/01/01 07:21:14;;;;;;;54.40;24.50;;;;;;;3.49;100.00;99521.70;214061;1288;140174;-92
2024/01/01 07:26:14;;;;;;;54.80;26.00;;;;;;;3.39;100.00;99513.83;215380;1287;138542;-91
2024/01/01 07:31:15;;;;;;;49.00;24.80;;;;;;;3.32;100.00;99516.77;214937;1290;139780;-92
2024/01/01 07:36:16;;;;;;;48.10;25.10;;;;;;;3.27;100.00;99519.21;215546;1287;138826;-92
2024/01/01 07:41:16;;;;;;;48.10;24.40;;;;;;;3.26;100.00;99517.93;215027;1287;140146;-92
2024/01/01 07:46:17;;;;;;;44.50;22.20;;;;;;;3.19;100.00;99509.77;215747;1290;98030;-92
2024/01/01 07:51:17;;;;;;;42.40;22.40;;;;;;;3.16;100.00;99528.34;215187;1288;139710;-91
2024/01/01 07:56:18;;;;;;;43.80;22.30;;;;;;;3.17;100.00;99543.95;215526;1287;138718;-91
2024/01/01 08:01:19;;;;;;;48.40;21.70;;;;;;;3.21;100.00;99543.61;215618;1288;139864;-92
2024/01/01 08:06:21;;;;;;;40.60;21.20;;;;;;;3.25;100.00;99550.38;218294;1286;140048;-92
2024/01/01 08:11:21;;;;;;;45.30;22.20;;;;;;;3.31;100.00;99552.94;217731;1286;139980;-90
2024/01/01 08:16:22;;;;;;;39.30;20.80;;;;;;;3.40;100.00;99560.64;215071;1291;98131;-93
2024/01/01 08:21:22;;;;;;;48.90;21.80;;;;;;;3.48;100.00;99563.48;213758;1288;139582;-93
2024/01/01 08:26:23;;;;;;;43.40;20.60;;;;;;;3.55;100.00;99566.48;214483;1290;138639;-92
2024/01/01 08:31:23;;;;;;;47.20;21.40;;;;;;;3.65;100.00;99565.06;213720;1288;140670;-91
2024/01/01 08:36:25;;;;;;;46.90;21.50;;;;;;;3.73;100.00;99561.16;214342;1291;139162;-92
2024/01/01 08:41:26;;;;;;;41.40;20.10;;;;;;;3.82;100.00;99559.51;213877;1286;141246;-92
2024/01/01 08:46:27;;;;;;;45.80;22.00;;;;;;;3.91;100.00;99558.70;214603;1289;112063;-91
2024/01/01 08:51:27;;;;;;;46.10;22.60;;;;;;;4.01;100.00;99555.58;214006;1286;140157;-91
2024/01/01 08:56:27;;;;;;;47.20;22.20;;;;;;;4.10;100.00;99557.59;214438;1288;138976;-91
2024/01/01 09:01:28;;;;;;;42.20;22.20;;;;;;;4.22;100.00;99566.90;213924;1287;140120;-91
2024/01/01 09:06:28;;;;;;;42.90;21.70;;;;;;;4.35;100.00;99563.66;214778;1286;141346;-92
2024/01/01 09:11:29;;;;;;;45.80;22.40;;;;;;;4.46;100.00;99562.73;214962;1287;139667;-93
2024/01/01 09:16:31;;;;;;;46.30;20.40;;;;;;;4.57;100.00;99555.66;215681;1287;139131;-93
2024/01/01 09:21:32;;;;;;;42.60;21.00;;;;;;;4.67;100.00;99555.39;215132;1286;140550;-93
2024/01/01 09:26:34;;;;;;;40.60;19.70;;;;;;;4.76;100.00;99555.42;215528;1290;138721;-92
2024/01/01 09:31:35;;;;;;;37.80;19.00;;;;;;;4.87;100.00;99553.38;215136;1287;139724;-92
2024/01/01 09:36:37;;;;;;;43.10;19.10;;;;;;;4.97;100.00;99551.63;215326;1287;139267;-93
2024/01/01 09:41:37;;;;;;;35.90;17.70;;;;;;;5.07;100.00;99538.73;215053;1286;140223;-93
2024/01/01 09:46:39;;;;;;;37.10;18.20;;;;;;;5.15;100.00;99529.00;216128;1287;276163;-92
2024/01/01 09:51:40;;;;;;;38.30;18.70;;;;;;;5.25;100.00;99526.91;217873;1286;139758;-92
2024/01/01 09:56:40;;;;;;;38.90;18.50;;;;;;;5.32;100.00;99528.34;217994;1287;138891;-91
2024/01/01 10:01:44;;;;;;;36.80;18.20;;;;;;;5.40;100.00;99524.04;214371;1288;140506;-89
2024/01/01 10:06:54;;;;;;;39.80;18.10;;;;;;;5.47;100.00;99518.16;214768;1287;138999;-90
2024/01/01 10:12:13;;;;;;;39.60;18.20;;;;;;;5.54;100.00;99509.63;214129;1288;139490;-92
2024/01/01 10:17:15;;;;;;;32.90;16.60;;;;;;;5.60;100.00;99508.56;214572;1286;139991;-93
2024/01/01 10:22:19;;;;;;;36.50;17.10;;;;;;;5.67;100.00;99507.80;214866;1288;140284;-92
2024/01/01 10:27:20;;;;;;;39.60;20.00;;;;;;;5.71;100.00;99513.57;214631;1290;139193;-92
2024/01/01 10:32:21;;;;;;;39.30;18.90;;;;;;;5.76;100.00;99514.18;214202;1286;140331;-91
2024/01/01 10:37:25;;;;;;;33.90;16.50;;;;;;;5.81;100.00;99509.38;214714;1286;139423;-92
2024/01/01 10:42:31;;;;;;;36.60;17.80;;;;;;;5.86;100.00;99509.61;214496;1287;139567;-90
2024/01/01 10:47:32;;;;;;;38.90;17.80;;;;;;;5.93;100.00;99506.44;214500;1290;138873;-91
2024/01/01 10:52:55;;;;;;;36.90;16.80;;;;;;;5.98;100.00;99506.06;214949;1290;140684;-90
2024/01/01 10:58:06;;;;;;;37.80;17.20;;;;;;;6.04;100.00;99504.89;216425;1286;96659;-90
2024/01/01 11:03:13;;;;;;;37.90;16.90;;;;;;;6.10;100.00;99496.77;215263;1290;139779;-89
2024/01/01 11:08:25;;;;;;;34.40;16.40;;;;;;;6.18;100.00;99492.84;215805;1287;138623;-91
2024/01/01 11:13:26;;;;;;;33.50;16.20;;;;;;;6.25;100.00;99492.30;215176;1288;139692;-91
2024/01/01 11:18:33;;;;;;;35.80;16.50;;;;;;;6.29;100.00;99495.38;215694;1288;139139;-89
2024/01/01 11:23:43;;;;;;;32.50;16.60;;;;;;;6.34;100.00;99494.98;215281;1288;140093;-89
2024/01/01 11:28:44;;;;;;;38.90;15.70;;;;;;;6.39;100.00;99498.26;215775;1288;140045;-90
2024/01/01 11:33:44;;;;;;;32.20;15.20;;;;;;;6.44;100.00;99495.36;216499;1287;139732;-90
2024/01/01 11:38:57;;;;;;;30.70;14.40;;;;;;;6.50;100.00;99497.85;218214;1286;140396;-91
2024/01/01 11:44:23;;;;;;;30.50;15.10;;;;;;;6.52;100.00;99497.17;216133;1287;140637;-91
2024/01/01 11:49:23;;;;;;;29.90;13.80;;;;;;;6.55;100.00;99496.98;214774;1286;139519;-90
2024/01/01 11:54:26;;;;;;;27.70;12.80;;;;;;;6.58;100.00;99496.22;213706;1291;139406;-89
2024/01/01 11:59:29;;;;;;;26.80;11.80;;;;;;;6.60;100.00;99497.50;214473;1288;138703;-90
2024/01/01 12:04:30;;;;;;;27.40;11.90;;;;;;;6.63;100.00;99495.50;214306;1286;139991;-90
2024/01/01 12:09:33;;;;;;;23.70;10.50;;;;;;;6.66;100.00;99490.94;214472;1286;138574;-89
2024/01/01 12:20:01;;;;;;;24.40;11.40;;;;;;;6.71;100.00;99493.88;214069;1290;140845;-91
2024/01/01 12:25:02;;;;;;;27.40;12.10;;;;;;;6.72;100.00;99494.99;214747;1287;138863;-92
2024/01/01 12:30:03;;;;;;;24.20;11.00;;;;;;;6.72;100.00;99498.81;214102;1286;139444;-91
2024/01/01 12:35:04;;;;;;;24.10;10.10;;;;;;;6.70;100.00;99493.88;215017;1286;139965;-90
2024/01/01 12:40:07;;;;;;;21.80;10.90;;;;;;;6.70;100.00;99489.66;215188;1287;139948;-88
2024/01/01 12:45:09;;;;;;;25.60;12.40;;;;;;;6.70;100.00;99488.80;216033;1288;139124;-88
2024/01/01 12:50:09;;;;;;;26.20;10.70;;;;;;;6.69;100.00;99497.14;215338;1291;141338;-89
2024/01/01 12:55:10;;;;;;;21.80;11.50;;;;;;;6.71;100.00;99490.38;215753;1286;138785;-90
2024/01/01 13:00:11;;;;;;;23.00;10.20;;;;;;;6.73;100.00;99482.49;215516;1287;140050;-90
2024/01/01 13:05:11;;;;;;;24.90;10.10;;;;;;;6.74;100.00;99476.02;216190;1286;139935;-88
2024/01/01 13:10:12;;;;;;;27.60;10.40;;;;;;;6.74;100.00;99476.11;215622;1286;139368;-89
2024/01/01 13:15:12;;;;;;;29.80;11.20;;;;;;;6.75;100.00;99476.98;216162;1287;138625;-91
2024/01/01 13:20:13;;;;;;;24.00;11.10;;;;;;;6.77;100.00;99482.55;216854;1290;139845;-90
2024/01/01 13:25:13;;;;;;;26.10;12.20;;;;;;;6.78;100.00;99480.60;218191;1286;138718;-90
2024/01/01 13:30:15;;;;;;;24.90;10.20;;;;;;;6.77;100.00;99477.55;216200;1290;163605;-90
2024/01/01 13:35:16;;;;;;;22.20;10.20;;;;;;;6.79;100.00;99479.98;214933;1288;139689;-89
2024/01/01 13:40:17;;;;;;;21.40;10.70;;;;;;;6.79;100.00;99484.98;214572;1286;139843;-90
2024/01/01 13:45:17;;;;;;;24.80;11.30;;;;;;;6.77;100.00;99483.88;214892;1287;138617;-91
2024/01/01 13:50:18;;;;;;;21.40;10.50;;;;;;;6.77;100.00;99482.39;214208;1288;140382;-90
2024/01/01 13:55:21;;;;;;;25.10;12.30;;;;;;;6.77;100.00;99482.06;214702;1290;137742;-89
2024/01/01 14:00:24;;;;;;;27.60;14.80;;;;;;;6.76;100.00;99479.64;214159;1290;138927;-90
2024/01/01 14:05:27;;;;;;;31.40;15.10;;;;;;;6.74;100.00;99489.09;214610;1291;138853;-90
2024/01/01 14:10:28;;;;;;;34.90;16.20;;;;;;;6.72;100.00;99494.04;214274;1287;139339;-90
2024/01/01 14:15:28;;;;;;;33.10;18.60;;;;;;;6.70;100.00;99495.52;214662;1287;138604;-90
2024/01/01 14:20:29;;;;;;;33.40;17.30;;;;;;;6.67;100.00;99499.77;214482;1287;140094;-90
2024/01/01 14:25:30;;;;;;;25.10;13.20;;;;;;;6.63;100.00;99498.95;215597;1288;139032;-90
2024/01/01 14:30:31;;;;;;;23.30;12.20;;;;;;;6.60;100.00;99499.13;215142;1286;139951;-91
2024/01/01 14:35:31;;;;;;;28.70;12.60;;;;;;;6.56;100.00;99500.81;215903;1287;139515;-84
2024/01/01 14:40:32;;;;;;;28.20;12.70;;;;;;;6.53;100.00;99503.82;215434;1290;140031;-85
2024/01/01 14:45:34;;;;;;;30.80;12.70;;;;;;;6.48;100.00;99502.67;215946;1287;138341;-85
2024/01/01 14:50:38;;;;;;;28.90;14.50;;;;;;;6.43;100.00;99502.52;215281;1286;139745;-84
2024/01/01 14:55:41;;;;;;;30.80;13.70;;;;;;;6.37;100.00;99500.65;215930;1291;139170;-85
2024/01/01 15:00:41;;;;;;;27.10;13.40;;;;;;;6.27;100.00;99507.08;215294;1287;141560;-85
2024/01/01 15:05:42;;;;;;;33.70;14.80;;;;;;;6.11;100.00;99512.95;215910;1287;138934;-85
2024/01/01 15:10:43;;;;;;;31.60;13.80;;;;;;;6.00;100.00;99517.95;215486;1288;139886;-85
2024/01/01 15:15:43;;;;;;;31.60;14.10;;;;;;;5.86;100.00;99520.13;215885;1286;97941;-85
2024/01/01 15:20:44;;;;;;;31.00;15.00;;;;;;;5.70;100.00;99528.84;215288;1288;139717;-85
2024/01/01 15:25:45;;;;;;;42.10;18.60;;;;;;;5.51;100.00;99530.17;215910;1288;139063;-86
2024/01/01 15:30:49;;;;;;;38.00;18.40;;;;;;;5.33;100.00;99534.37;215296;1288;139948;-85
2024/01/01 15:35:50;;;;;;;43.30;19.80;;;;;;;5.17;100.00;99539.92;215882;1287;139034;-86
2024/01/01 15:40:51;;;;;;;41.00;21.30;;;;;;;5.01;100.00;99542.51;215296;1288;140133;-85
2024/01/01 15:45:52;;;;;;;40.50;21.30;;;;;;;4.86;100.00;99549.94;216125;1287;97939;-85
2024/01/01 15:50:52;;;;;;;47.50;22.80;;;;;;;4.75;100.00;99557.13;215093;1289;139334;-86
2024/01/01 15:55:53;;;;;;;53.70;22.80;;;;;;;4.66;100.00;99558.64;215788;1286;138733;-84
2024/01/01 16:00:53;;;;;;;49.20;23.50;;;;;;;4.54;100.00;99559.71;215362;1287;139860;-83
2024/01/01 16:05:53;;;;;;;48.50;22.90;;;;;;;4.42;100.00;99559.07;215937;1287;139479;-84
2024/01/01 16:10:54;;;;;;;52.50;25.00;;;;;;;4.29;100.00;99562.38;215609;1288;139705;-84
2024/01/01 16:15:54;;;;;;;57.10;26.30;;;;;;;4.17;100.00;99567.02;215850;1288;99273;-84
2024/01/01 16:20:55;;;;;;;56.90;24.60;;;;;;;4.12;100.00;99575.05;214933;1288;139828;-85
2024/01/01 16:26:04;;;;;;;52.20;24.00;;;;;;;4.09;100.00;99578.95;215716;1290;139241;-85
2024/01/01 16:31:05;;;;;;;49.90;22.40;;;;;;;4.06;100.00;99580.12;215038;1287;141436;-85
2024/01/01 16:36:13;;;;;;;48.20;20.80;;;;;;;4.05;100.00;99581.83;215765;1287;138721;-84
2024/01/01 16:41:22;;;;;;;43.00;19.00;;;;;;;4.09;100.00;99587.22;214345;1287;139989;-86
2024/01/01 16:46:25;;;;;;;38.70;14.90;;;;;;;4.15;100.00;99593.33;214861;1288;97921;-86
2024/01/01 16:51:25;;;;;;;36.60;15.10;;;;;;;4.27;100.00;99597.19;215018;1288;139838;-85
2024/01/01 16:56:26;;;;;;;43.90;18.00;;;;;;;4.38;100.00;99597.19;215437;1286;138922;-86
2024/01/01 17:01:26;;;;;;;38.40;19.50;;;;;;;4.49;100.00;99598.06;215161;1288;139896;-86
2024/01/01 17:06:29;;;;;;;61.30;25.00;;;;;;;4.59;100.00;99599.70;215547;1288;138763;-86
2024/01/01 17:11:32;;;;;;;65.40;25.70;;;;;;;4.68;100.00;99604.64;214853;1286;139635;-86
2024/01/01 17:16:38;;;;;;;52.80;20.10;;;;;;;4.78;100.00;99610.29;215409;1288;98859;-86
2024/01/01 17:21:39;;;;;;;48.00;19.60;;;;;;;4.89;100.00;99614.33;214726;1290;142628;-86
2024/01/01 17:26:41;;;;;;;45.20;16.50;;;;;;;4.98;100.00;99618.17;215579;1287;139126;-87
2024/01/01 17:31:45;;;;;;;29.50;12.20;;;;;;;5.06;100.00;99620.84;215082;1287;139763;-86
2024/01/01 17:36:46;;;;;;;24.50;10.60;;;;;;;5.13;100.00;99623.86;215575;1289;139223;-86
2024/01/01 17:41:52;;;;;;;24.70;10.10;;;;;;;5.19;100.00;99624.52;213920;1291;140533;-89
2024/01/01 17:47:08;;;;;;;;;;;;;;;5.25;100.00;99624.17;215151;1290;105626;-90
2024/01/01 17:52:35;;;;;;;27.70;10.80;;;;;;;5.30;100.00;99621.53;214086;1291;127518;-88
2024/01/01 17:57:38;;;;;;;31.00;10.80;;;;;;;5.34;100.00;99621.70;214810;1287;138527;-88
2024/01/01 18:02:39;;;;;;;27.00;11.40;;;;;;;5.35;100.00;99620.55;214220;1291;144242;-88
2024/01/01 18:07:45;;;;;;;29.70;11.70;;;;;;;5.36;100.00;99624.99;215099;1290;138957;-90
2024/01/01 18:12:46;;;;;;;28.50;12.10;;;;;;;5.36;100.00;99623.83;214307;1287;139750;-89
2024/01/01 18:17:50;;;;;;;26.30;11.50;;;;;;;5.37;100.00;99628.77;214735;1287;139794;-90
2024/01/01 18:22:51;;;;;;;32.00;15.00;;;;;;;5.35;100.00;99626.63;214386;1288;140214;-90
2024/01/01 18:27:56;;;;;;;37.10;15.70;;;;;;;5.35;100.00;99634.88;215126;1288;139351;-90
2024/01/01 18:32:59;;;;;;;31.90;14.80;;;;;;;5.37;100.00;99638.13;214185;1292;140358;-91
2024/01/01 18:38:00;;;;;;;30.20;13.30;;;;;;;5.38;100.00;99635.65;215007;1289;138886;-90
2024/01/01 18:43:00;;;;;;;30.10;13.20;;;;;;;5.38;100.00;99636.52;214556;1288;139810;-88
2024/01/01 18:48:01;;;;;;;34.80;15.00;;;;;;;5.40;100.00;99637.38;214867;1288;139066;-88
2024/01/01 18:53:01;;;;;;;27.40;13.60;;;;;;;5.39;100.00;99637.21;214390;1291;139697;-90
2024/01/01 18:58:03;;;;;;;22.10;9.60;;;;;;;5.39;100.00;99635.20;214420;1291;139061;-88
2024/01/01 19:03:04;;;;;;;28.50;10.80;;;;;;;5.41;100.00;99635.40;214084;1288;139837;-88
2024/01/01 19:08:05;;;;;;;31.50;10.80;;;;;;;5.42;100.00;99632.67;214376;1288;138969;-87
2024/01/01 19:13:05;;;;;;;28.90;12.80;;;;;;;5.44;100.00;99633.25;213765;1293;139833;-87
2024/01/01 19:18:06;;;;;;;26.70;13.80;;;;;;;5.45;100.00;99634.99;214563;1287;139349;-88
2024/01/01 19:23:07;;;;;;;34.50;13.70;;;;;;;5.46;100.00;99637.50;214469;1291;141237;-88
2024/01/01 19:28:07;;;;;;;33.10;14.10;;;;;;;5.47;100.00;99636.53;214398;1291;138829;-88
2024/01/01 19:33:07;;;;;;;34.90;14.50;;;;;;;5.48;100.00;99640.36;214149;1290;139907;-86
2024/01/01 19:38:08;;;;;;;27.10;13.20;;;;;;;5.48;100.00;99642.92;214592;1288;138721;-87
2024/01/01 19:43:11;;;;;;;32.30;14.50;;;;;;;5.47;100.00;99638.80;213786;1289;141663;-89
2024/01/01 19:48:14;;;;;;;28.70;12.80;;;;;;;5.48;100.00;99640.12;214645;1291;138731;-87
2024/01/01 19:53:14;;;;;;;36.20;13.60;;;;;;;5.48;100.00;99644.18;214159;1288;141142;-87
2024/01/01 19:58:17;;;;;;;28.80;12.40;;;;;;;5.49;100.00;99646.67;214364;1291;139308;-88
2024/01/01 20:03:18;;;;;;;27.60;12.20;;;;;;;5.48;100.00;99646.89;214033;1288;139529;-87
2024/01/01 20:08:18;;;;;;;27.50;11.10;;;;;;;5.47;100.00;99646.20;214530;1291;139052;-88
2024/01/01 20:13:23;;;;;;;27.30;11.30;;;;;;;5.47;100.00;99641.66;213714;1291;140053;-87
2024/01/01 20:18:24;;;;;;;26.20;11.10;;;;;;;5.47;100.00;99639.09;214389;1291;138844;-88
2024/01/01 20:23:26;;;;;;;28.50;11.60;;;;;;;5.46;100.00;99639.92;214015;1288;139768;-87
2024/01/01 20:28:27;;;;;;;28.50;12.10;;;;;;;5.46;100.00;99642.64;214555;1291;138614;-88
2024/01/01 20:33:27;;;;;;;25.80;12.10;;;;;;;5.43;100.00;99651.02;213692;1288;139950;-87
2024/01/01 20:38:28;;;;;;;33.40;12.10;;;;;;;5.43;100.00;99656.56;214584;1291;138840;-87
2024/01/01 20:43:28;;;;;;;32.50;12.40;;;;;;;5.43;100.00;99657.39;214008;1286;140339;-88
2024/01/01 20:48:29;;;;;;;34.60;13.10;;;;;;;5.44;100.00;99657.89;214481;1290;138987;-88
2024/01/01 20:53:29;;;;;;;28.10;11.30;;;;;;;5.45;100.00;99656.05;214040;1291;139688;-88
2024/01/01 20:58:31;;;;;;;32.10;11.30;;;;;;;5.46;100.00;99655.14;214016;1291;138438;-88
2024/01/01 21:03:35;;;;;;;26.10;10.70;;;;;;;5.47;100.00;99653.77;213722;1286;140033;-89
2024/01/01 21:08:37;;;;;;;24.70;10.70;;;;;;;5.48;100.00;99657.35;214509;1288;138664;-90
2024/01/01 21:13:38;;;;;;;26.40;9.70;;;;;;;5.49;100.00;99656.75;213552;1290;139694;-88
2024/01/01 21:18:38;;;;;;;23.00;9.10;;;;;;;5.50;100.00;99657.63;214283;1291;139238;-89
2024/01/01 21:23:39;;;;;;;18.40;7.80;;;;;;;5.50;100.00;99654.95;214021;1289;139247;-89
2024/01/01 21:28:43;;;;;;;22.40;9.10;;;;;;;5.50;100.00;99658.39;214645;1291;97955;-89
2024/01/01 21:33:45;;;;;;;22.60;8.20;;;;;;;5.50;100.00;99655.04;214103;1289;143443;-88
2024/01/01 21:38:46;;;;;;;24.90;9.30;;;;;;;5.51;100.00;99655.98;214688;1286;139952;-88
2024/01/01 21:43:46;;;;;;;31.10;8.80;;;;;;;5.52;100.00;99660.85;213785;1286;139402;-88
2024/01/01 21:48:47;;;;;;;22.30;8.80;;;;;;;5.54;100.00;99664.00;214482;1286;207712;-89
2024/01/01 21:53:47;;;;;;;18.60;8.50;;;;;;;5.54;100.00;99666.90;213894;1290;139472;-88
2024/01/01 21:58:48;;;;;;;23.70;9.10;;;;;;;5.56;100.00;99667.40;214465;1291;98011;-87
2024/01/01 22:03:48;;;;;;;20.80;7.90;;;;;;;5.56;100.00;99666.23;213712;1286;139929;-87
2024/01/01 22:08:49;;;;;;;21.40;8.70;;;;;;;5.56;100.00;99670.99;214319;1286;139916;-87
2024/01/01 22:13:50;;;;;;;25.90;9.40;;;;;;;5.57;100.00;99670.77;213947;1292;139676;-88
2024/01/01 22:18:51;;;;;;;26.00;9.40;;;;;;;5.58;100.00;99668.69;214867;1295;138893;-89
2024/01/01 22:23:51;;;;;;;24.40;10.80;;;;;;;5.58;100.00;99666.80;214094;1286;140116;-88
2024/01/01 22:28:51;;;;;;;25.20;9.20;;;;;;;5.58;100.00;99667.84;214753;1292;97899;-88
2024/01/01 22:33:52;;;;;;;21.90;8.90;;;;;;;5.59;100.00;99665.73;213932;1286;139296;-88
2024/01/01 22:38:52;;;;;;;28.90;10.40;;;;;;;5.58;100.00;99669.39;214542;1288;138641;-88
2024/01/01 22:43:53;;;;;;;21.10;9.10;;;;;;;5.56;100.00;99666.23;214120;1291;139865;-88
2024/01/01 22:48:53;;;;;;;18.70;7.70;;;;;;;5.56;100.00;99666.23;214437;1286;138800;-88